sensor_id;sensor_type;location;lat;lon;timestamp;pressure;altitude;pressure_sealevel;temperature;humidity
48624;BME280;34422;45.802;16.114;2023-04-07T00:01:28;100330.00;;;2.05;100.00
48624;BME280;34422;45.802;16.114;2023-04-07T00:03:55;100344.00;;;2.07;100.00
48624;BME280;34422;45.802;16.114;2023-04-07T00:06:22;100340.31;;;2.00;100.00
48624;BME280;34422;45.802;16.114;2023-04-07T00:08:49;100338.94;;;1.96;100.00
48624;BME280;34422;45.802;16.114;2023-04-07T00:11:15;100339.56;;;1.90;100.00
48624;BME280;34422;45.802;16.114;2023-04-07T00:13:42;100337.56;;;1.92;100.00
48624;BME280;34422;45.802;16.114;2023-04-07T00:16:09;100336.50;;;1.85;100.00
48624;BME280;34422;45.802;16.114;2023-04-07T00:18:35;100335.47;;;1.77;100.00
48624;BME280;34422;45.802;16.114;2023-04-07T00:21:02;100338.13;;;1.77;100.00
48624;BME280;34422;45.802;16.114;2023-04-07T00:23:29;100339.13;;;1.76;100.00
48624;BME280;34422;45.802;16.114;2023-04-07T00:25:57;100326.25;;;1.72;100.00
48624;BME280;34422;45.802;16.114;2023-04-07T00:28:23;100331.28;;;1.75;100.00
48624;BME280;34422;45.802;16.114;2023-04-07T00:30:50;100331.72;;;1.70;100.00
48624;BME280;34422;45.802;16.114;2023-04-07T00:33:17;100333.94;;;1.75;100.00
48624;BME280;34422;45.802;16.114;2023-04-07T00:35:44;100331.03;;;1.68;100.00
48624;BME280;34422;45.802;16.114;2023-04-07T00:38:10;100330.34;;;1.66;100.00
48624;BME280;34422;45.802;16.114;2023-04-07T00:40:37;100322.88;;;1.70;100.00
48624;BME280;34422;45.802;16.114;2023-04-07T00:43:04;100319.22;;;1.71;100.00
48624;BME280;34422;45.802;16.114;2023-04-07T00:45:30;100311.00;;;1.64;100.00
48624;BME280;34422;45.802;16.114;2023-04-07T00:47:57;100318.69;;;1.67;100.00
48624;BME280;34422;45.802;16.114;2023-04-07T00:50:24;100319.47;;;1.60;100.00
48624;BME280;34422;45.802;16.114;2023-04-07T00:52:52;100320.69;;;1.65;100.00
48624;BME280;34422;45.802;16.114;2023-04-07T00:55:20;100316.34;;;1.64;100.00
48624;BME280;34422;45.802;16.114;2023-04-07T00:57:47;100322.69;;;1.63;100.00
48624;BME280;34422;45.802;16.114;2023-04-07T01:00:14;100323.44;;;1.73;100.00
48624;BME280;34422;45.802;16.114;2023-04-07T01:02:46;100322.78;;;1.79;100.00
48624;BME280;34422;45.802;16.114;2023-04-07T01:05:25;100331.78;;;1.78;100.00
48624;BME280;34422;45.802;16.114;2023-04-07T01:08:16;100323.63;;;1.80;100.00
48624;BME280;34422;45.802;16.114;2023-04-07T01:10:50;100321.44;;;1.75;100.00
48624;BME280;34422;45.802;16.114;2023-04-07T01:13:24;100319.69;;;1.66;100.00
48624;BME280;34422;45.802;16.114;2023-04-07T01:15:54;100312.31;;;1.60;100.00
48624;BME280;34422;45.802;16.114;2023-04-07T01:18:28;100312.69;;;1.65;100.00
48624;BME280;34422;45.802;16.114;2023-04-07T01:21:01;100311.09;;;1.72;100.00
48624;BME280;34422;45.802;16.114;2023-04-07T01:26:30;100304.47;;;1.59;100.00
48624;BME280;34422;45.802;16.114;2023-04-07T01:31:43;100304.22;;;1.52;100.00
48624;BME280;34422;45.802;16.114;2023-04-07T01:34:12;100307.88;;;1.51;100.00
48624;BME280;34422;45.802;16.114;2023-04-07T01:36:41;100303.19;;;1.45;100.00
48624;BME280;34422;45.802;16.114;2023-04-07T01:39:08;100302.63;;;1.06;100.00
48624;BME280;34422;45.802;16.114;2023-04-07T01:41:37;100300.34;;;0.93;100.00
48624;BME280;34422;45.802;16.114;2023-04-07T01:44:05;100296.00;;;0.92;100.00
48624;BME280;34422;45.802;16.114;2023-04-07T01:46:33;100300.59;;;0.73;100.00
48624;BME280;34422;45.802;16.114;2023-04-07T01:49:00;100295.41;;;0.71;100.00
48624;BME280;34422;45.802;16.114;2023-04-07T01:51:29;100301.06;;;0.68;100.00
48624;BME280;34422;45.802;16.114;2023-04-07T01:53:56;100294.72;;;0.69;100.00
48624;BME280;34422;45.802;16.114;2023-04-07T01:56:24;100297.09;;;0.72;100.00
48624;BME280;34422;45.802;16.114;2023-04-07T01:58:51;100293.06;;;0.68;100.00
48624;BME280;34422;45.802;16.114;2023-04-07T02:01:17;100295.53;;;0.79;100.00
48624;BME280;34422;45.802;16.114;2023-04-07T02:03:51;100302.91;;;0.85;100.00
48624;BME280;34422;45.802;16.114;2023-04-07T02:06:22;100299.53;;;0.83;100.00
48624;BME280;34422;45.802;16.114;2023-04-07T02:08:54;100295.53;;;0.79;100.00
48624;BME280;34422;45.802;16.114;2023-04-07T02:11:23;100295.81;;;0.76;100.00
48624;BME280;34422;45.802;16.114;2023-04-07T02:13:53;100294.13;;;0.75;100.00
48624;BME280;34422;45.802;16.114;2023-04-07T02:16:21;100299.47;;;0.75;100.00
48624;BME280;34422;45.802;16.114;2023-04-07T02:18:48;100297.22;;;0.70;100.00
48624;BME280;34422;45.802;16.114;2023-04-07T02:21:16;100286.66;;;0.61;100.00
48624;BME280;34422;45.802;16.114;2023-04-07T02:23:45;100280.81;;;0.48;100.00
48624;BME280;34422;45.802;16.114;2023-04-07T02:26:12;100286.16;;;0.48;100.00
48624;BME280;34422;45.802;16.114;2023-04-07T02:28:38;100291.47;;;0.48;100.00
48624;BME280;34422;45.802;16.114;2023-04-07T02:31:05;100291.75;;;0.45;100.00
48624;BME280;34422;45.802;16.114;2023-04-07T02:33:32;100295.13;;;0.47;100.00
48624;BME280;34422;45.802;16.114;2023-04-07T02:35:59;100288.25;;;0.44;100.00
48624;BME280;34422;45.802;16.114;2023-04-07T02:38:25;100289.78;;;0.47;100.00
48624;BME280;34422;45.802;16.114;2023-04-07T02:40:52;100276.06;;;0.42;100.00
48624;BME280;34422;45.802;16.114;2023-04-07T02:43:20;100290.69;;;0.38;100.00
48624;BME280;34422;45.802;16.114;2023-04-07T02:45:46;100282.28;;;0.32;100.00
48624;BME280;34422;45.802;16.114;2023-04-07T02:48:13;100282.06;;;0.26;100.00
48624;BME280;34422;45.802;16.114;2023-04-07T02:50:40;100281.09;;;0.17;100.00
48624;BME280;34422;45.802;16.114;2023-04-07T02:53:07;100276.66;;;0.08;100.00
48624;BME280;34422;45.802;16.114;2023-04-07T02:55:34;100277.63;;;0.07;100.00
48624;BME280;34422;45.802;16.114;2023-04-07T02:58:00;100285.75;;;0.06;100.00
48624;BME280;34422;45.802;16.114;2023-04-07T03:00:27;100278.94;;;-0.07;100.00
48624;BME280;34422;45.802;16.114;2023-04-07T03:02:54;100291.81;;;-0.02;100.00
48624;BME280;34422;45.802;16.114;2023-04-07T03:05:20;100287.88;;;-0.08;100.00
48624;BME280;34422;45.802;16.114;2023-04-07T03:07:47;100288.03;;;-0.09;100.00
48624;BME280;34422;45.802;16.114;2023-04-07T03:10:14;100287.78;;;-0.16;100.00
48624;BME280;34422;45.802;16.114;2023-04-07T03:12:42;100276.59;;;-0.19;100.00
48624;BME280;34422;45.802;16.114;2023-04-07T03:15:09;100281.31;;;-0.13;100.00
48624;BME280;34422;45.802;16.114;2023-04-07T03:17:36;100279.66;;;-0.14;100.00
48624;BME280;34422;45.802;16.114;2023-04-07T03:20:03;100275.72;;;-0.10;100.00
48624;BME280;34422;45.802;16.114;2023-04-07T03:22:29;100274.88;;;-0.01;100.00
48624;BME280;34422;45.802;16.114;2023-04-07T03:24:56;100275.72;;;-0.01;100.00
48624;BME280;34422;45.802;16.114;2023-04-07T03:27:23;100269.44;;;-0.19;100.00
48624;BME280;34422;45.802;16.114;2023-04-07T03:29:49;100274.63;;;-0.17;100.00
48624;BME280;34422;45.802;16.114;2023-04-07T03:32:16;100272.94;;;-0.18;100.00
48624;BME280;34422;45.802;16.114;2023-04-07T03:34:43;100269.31;;;-0.17;100.00
48624;BME280;34422;45.802;16.114;2023-04-07T03:37:10;100277.00;;;-0.14;100.00
48624;BME280;34422;45.802;16.114;2023-04-07T03:39:36;100273.06;;;-0.10;100.00
48624;BME280;34422;45.802;16.114;2023-04-07T03:42:04;100279.06;;;-0.08;100.00
48624;BME280;34422;45.802;16.114;2023-04-07T03:44:31;100277.09;;;-0.06;100.00
48624;BME280;34422;45.802;16.114;2023-04-07T03:46:58;100268.84;;;-0.03;100.00
48624;BME280;34422;45.802;16.114;2023-04-07T03:49:24;100274.81;;;0.09;100.00
48624;BME280;34422;45.802;16.114;2023-04-07T03:51:52;100277.06;;;0.13;100.00
48624;BME280;34422;45.802;16.114;2023-04-07T03:54:19;100271.41;;;0.16;100.00
48624;BME280;34422;45.802;16.114;2023-04-07T03:56:45;100265.41;;;0.14;100.00
48624;BME280;34422;45.802;16.114;2023-04-07T03:59:12;100267.50;;;0.20;100.00
48624;BME280;34422;45.802;16.114;2023-04-07T04:01:39;100266.59;;;0.29;100.00
48624;BME280;34422;45.802;16.114;2023-04-07T04:04:06;100268.00;;;0.33;100.00
48624;BME280;34422;45.802;16.114;2023-04-07T04:06:33;100268.56;;;0.37;100.00
48624;BME280;34422;45.802;16.114;2023-04-07T04:09:00;100272.44;;;0.43;100.00
48624;BME280;34422;45.802;16.114;2023-04-07T04:11:26;100280.81;;;0.48;100.00
48624;BME280;34422;45.802;16.114;2023-04-07T04:13:53;100281.59;;;0.58;100.00
48624;BME280;34422;45.802;16.114;2023-04-07T04:16:20;100281.75;;;0.56;100.00
48624;BME280;34422;45.802;16.114;2023-04-07T04:18:47;100279.41;;;0.53;100.00
48624;BME280;34422;45.802;16.114;2023-04-07T04:21:13;100278.84;;;0.50;100.00
48624;BME280;34422;45.802;16.114;2023-04-07T04:23:40;100290.28;;;0.60;100.00
48624;BME280;34422;45.802;16.114;2023-04-07T04:26:07;100288.31;;;0.62;100.00
48624;BME280;34422;45.802;16.114;2023-04-07T04:28:34;100285.94;;;0.59;100.00
48624;BME280;34422;45.802;16.114;2023-04-07T04:31:01;100285.03;;;0.50;100.00
48624;BME280;34422;45.802;16.114;2023-04-07T04:33:27;100281.72;;;0.39;100.00
48624;BME280;34422;45.802;16.114;2023-04-07T04:35:54;100289.78;;;0.47;100.00
48624;BME280;34422;45.802;16.114;2023-04-07T04:38:21;100282.09;;;0.44;100.00
48624;BME280;34422;45.802;16.114;2023-04-07T04:40:48;100294.22;;;0.56;100.00
48624;BME280;34422;45.802;16.114;2023-04-07T04:43:14;100290.91;;;0.54;100.00
48624;BME280;34422;45.802;16.114;2023-04-07T04:45:41;100294.78;;;0.59;100.00
48624;BME280;34422;45.802;16.114;2023-04-07T04:48:08;100288.81;;;0.75;100.00
48624;BME280;34422;45.802;16.114;2023-04-07T04:50:36;100294.41;;;0.72;100.00
48624;BME280;34422;45.802;16.114;2023-04-07T04:53:03;100303.31;;;0.90;100.00
48624;BME280;34422;45.802;16.114;2023-04-07T04:55:29;100303.47;;;1.06;100.00
48624;BME280;34422;45.802;16.114;2023-04-07T04:57:56;100305.91;;;1.18;100.00
48624;BME280;34422;45.802;16.114;2023-04-07T05:00:23;100298.59;;;1.02;100.00
48624;BME280;34422;45.802;16.114;2023-04-07T05:02:50;100293.84;;;0.96;100.00
48624;BME280;34422;45.802;16.114;2023-04-07T05:05:17;100297.34;;;0.96;100.00
48624;BME280;34422;45.802;16.114;2023-04-07T05:07:43;100291.44;;;1.02;100.00
48624;BME280;34422;45.802;16.114;2023-04-07T05:10:10;100289.75;;;1.01;100.00
48624;BME280;34422;45.802;16.114;2023-04-07T05:12:37;100297.53;;;1.13;100.00
48624;BME280;34422;45.802;16.114;2023-04-07T05:15:04;100285.22;;;1.29;100.00
48624;BME280;34422;45.802;16.114;2023-04-07T05:17:31;100278.97;;;1.21;100.00
48624;BME280;34422;45.802;16.114;2023-04-07T05:19:58;100289.25;;;1.16;100.00
48624;BME280;34422;45.802;16.114;2023-04-07T05:22:24;100283.06;;;1.33;100.00
48624;BME280;34422;45.802;16.114;2023-04-07T05:24:51;100287.13;;;1.81;100.00
48624;BME280;34422;45.802;16.114;2023-04-07T05:27:18;100284.09;;;2.01;100.00
48624;BME280;34422;45.802;16.114;2023-04-07T05:29:44;100281.69;;;2.16;100.00
48624;BME280;34422;45.802;16.114;2023-04-07T05:32:11;100293.34;;;1.63;100.00
48624;BME280;34422;45.802;16.114;2023-04-07T05:34:38;100292.81;;;1.42;100.00
48624;BME280;34422;45.802;16.114;2023-04-07T05:37:05;100292.50;;;1.45;100.00
48624;BME280;34422;45.802;16.114;2023-04-07T05:39:32;100294.09;;;1.38;100.00
48624;BME280;34422;45.802;16.114;2023-04-07T05:41:58;100302.50;;;1.61;100.00
48624;BME280;34422;45.802;16.114;2023-04-07T05:44:27;100303.00;;;1.64;100.00
48624;BME280;34422;45.802;16.114;2023-04-07T05:46:54;100290.16;;;1.86;100.00
48624;BME280;34422;45.802;16.114;2023-04-07T05:49:21;100306.19;;;1.86;100.00
48624;BME280;34422;45.802;16.114;2023-04-07T05:51:47;100293.53;;;2.13;100.00
48624;BME280;34422;45.802;16.114;2023-04-07T05:54:14;100295.28;;;2.31;100.00
48624;BME280;34422;45.802;16.114;2023-04-07T05:56:41;100300.94;;;2.28;100.00
48624;BME280;34422;45.802;16.114;2023-04-07T05:59:08;100303.75;;;2.18;100.00
48624;BME280;34422;45.802;16.114;2023-04-07T06:01:35;100300.09;;;2.27;100.00
48624;BME280;34422;45.802;16.114;2023-04-07T06:04:02;100301.38;;;2.15;100.00
48624;BME280;34422;45.802;16.114;2023-04-07T06:06:29;100298.00;;;2.39;100.00
48624;BME280;34422;45.802;16.114;2023-04-07T06:08:56;100294.97;;;2.76;100.00
48624;BME280;34422;45.802;16.114;2023-04-07T06:11:23;100299.28;;;3.19;100.00
48624;BME280;34422;45.802;16.114;2023-04-07T06:13:50;100298.13;;;3.13;100.00
48624;BME280;34422;45.802;16.114;2023-04-07T06:16:17;100297.75;;;3.00;100.00
48624;BME280;34422;45.802;16.114;2023-04-07T06:18:44;100296.91;;;3.00;100.00
48624;BME280;34422;45.802;16.114;2023-04-07T06:21:10;100299.75;;;3.14;100.00
48624;BME280;34422;45.802;16.114;2023-04-07T06:23:37;100286.59;;;3.29;100.00
48624;BME280;34422;45.802;16.114;2023-04-07T06:26:04;100296.81;;;3.58;100.00
48624;BME280;34422;45.802;16.114;2023-04-07T06:28:31;100294.97;;;3.50;100.00
48624;BME280;34422;45.802;16.114;2023-04-07T06:30:58;100289.97;;;3.80;100.00
48624;BME280;34422;45.802;16.114;2023-04-07T06:33:24;100289.28;;;3.70;100.00
48624;BME280;34422;45.802;16.114;2023-04-07T06:35:51;100294.16;;;3.82;100.00
48624;BME280;34422;45.802;16.114;2023-04-07T06:38:18;100289.75;;;3.98;100.00
48624;BME280;34422;45.802;16.114;2023-04-07T06:40:45;100289.38;;;4.25;100.00
48624;BME280;34422;45.802;16.114;2023-04-07T06:43:12;100292.97;;;4.56;100.00
48624;BME280;34422;45.802;16.114;2023-04-07T06:45:39;100296.31;;;4.58;100.00
48624;BME280;34422;45.802;16.114;2023-04-07T06:48:05;100289.31;;;5.19;100.00
48624;BME280;34422;45.802;16.114;2023-04-07T06:50:32;100297.66;;;5.47;100.00
48624;BME280;34422;45.802;16.114;2023-04-07T06:52:59;100298.19;;;5.88;100.00
48624;BME280;34422;45.802;16.114;2023-04-07T06:55:26;100284.28;;;6.22;100.00
48624;BME280;34422;45.802;16.114;2023-04-07T06:57:52;100295.38;;;6.93;95.14
48624;BME280;34422;45.802;16.114;2023-04-07T07:00:19;100286.25;;;8.21;86.83
48624;BME280;34422;45.802;16.114;2023-04-07T07:02:48;100283.28;;;7.61;86.46
48624;BME280;34422;45.802;16.114;2023-04-07T07:05:15;100291.75;;;8.35;75.60
48624;BME280;34422;45.802;16.114;2023-04-07T07:07:42;100294.91;;;8.79;74.16
48624;BME280;34422;45.802;16.114;2023-04-07T07:10:09;100298.44;;;9.34;77.84
48624;BME280;34422;45.802;16.114;2023-04-07T07:12:36;100286.97;;;8.65;72.04
48624;BME280;34422;45.802;16.114;2023-04-07T07:15:03;100287.72;;;8.86;71.73
48624;BME280;34422;45.802;16.114;2023-04-07T07:17:30;100285.28;;;8.01;78.15
48624;BME280;34422;45.802;16.114;2023-04-07T07:19:57;100287.97;;;9.05;76.59
48624;BME280;34422;45.802;16.114;2023-04-07T07:22:23;100285.06;;;9.06;69.55
48624;BME280;34422;45.802;16.114;2023-04-07T07:24:51;100286.91;;;9.93;65.44
48624;BME280;34422;45.802;16.114;2023-04-07T07:27:17;100284.81;;;9.82;64.68
48624;BME280;34422;45.802;16.114;2023-04-07T07:29:44;100294.38;;;10.04;63.88
48624;BME280;34422;45.802;16.114;2023-04-07T07:32:14;100284.47;;;11.65;61.15
48624;BME280;34422;45.802;16.114;2023-04-07T07:34:41;100284.13;;;11.17;59.86
48624;BME280;34422;45.802;16.114;2023-04-07T07:37:08;100288.31;;;10.55;61.47
48624;BME280;34422;45.802;16.114;2023-04-07T07:39:34;100293.38;;;10.96;60.38
48624;BME280;34422;45.802;16.114;2023-04-07T07:42:02;100295.38;;;11.14;57.53
48624;BME280;34422;45.802;16.114;2023-04-07T07:44:28;100300.63;;;10.38;58.68
48624;BME280;34422;45.802;16.114;2023-04-07T07:46:55;100301.00;;;9.62;63.37
48624;BME280;34422;45.802;16.114;2023-04-07T07:49:22;100294.75;;;9.48;64.95
48624;BME280;34422;45.802;16.114;2023-04-07T07:51:48;100302.25;;;10.12;60.51
48624;BME280;34422;45.802;16.114;2023-04-07T07:54:15;100298.50;;;9.60;61.74
48624;BME280;34422;45.802;16.114;2023-04-07T07:56:42;100292.66;;;9.50;63.18
48624;BME280;34422;45.802;16.114;2023-04-07T07:59:08;100292.78;;;9.16;64.56
48624;BME280;34422;45.802;16.114;2023-04-07T08:01:35;100296.41;;;9.49;64.52
48624;BME280;34422;45.802;16.114;2023-04-07T08:04:02;100297.88;;;9.72;62.57
48624;BME280;34422;45.802;16.114;2023-04-07T08:06:29;100288.72;;;9.59;63.23
48624;BME280;34422;45.802;16.114;2023-04-07T08:08:57;100296.03;;;9.66;62.00
48624;BME280;34422;45.802;16.114;2023-04-07T08:11:24;100292.28;;;9.73;62.93
48624;BME280;34422;45.802;16.114;2023-04-07T08:13:51;100302.72;;;10.09;59.56
48624;BME280;34422;45.802;16.114;2023-04-07T08:16:19;100297.28;;;10.03;59.59
48624;BME280;34422;45.802;16.114;2023-04-07T08:18:47;100292.72;;;10.03;58.69
48624;BME280;34422;45.802;16.114;2023-04-07T08:21:14;100292.31;;;10.19;56.48
48624;BME280;34422;45.802;16.114;2023-04-07T08:23:41;100301.03;;;10.15;60.16
48624;BME280;34422;45.802;16.114;2023-04-07T08:26:08;100295.63;;;10.08;59.31
48624;BME280;34422;45.802;16.114;2023-04-07T08:28:35;100302.06;;;9.94;56.58
48624;BME280;34422;45.802;16.114;2023-04-07T08:31:01;100298.97;;;10.30;56.81
48624;BME280;34422;45.802;16.114;2023-04-07T08:33:28;100295.81;;;10.13;56.05
48624;BME280;34422;45.802;16.114;2023-04-07T08:35:55;100299.34;;;10.14;58.03
48624;BME280;34422;45.802;16.114;2023-04-07T08:38:22;100301.06;;;10.35;57.30
48624;BME280;34422;45.802;16.114;2023-04-07T08:40:54;100297.31;;;10.09;55.30
48624;BME280;34422;45.802;16.114;2023-04-07T08:43:25;100305.59;;;10.47;54.47
48624;BME280;34422;45.802;16.114;2023-04-07T08:45:55;100293.50;;;10.56;53.41
48624;BME280;34422;45.802;16.114;2023-04-07T08:48:23;100294.09;;;10.72;51.21
48624;BME280;34422;45.802;16.114;2023-04-07T08:50:56;100293.47;;;10.69;50.67
48624;BME280;34422;45.802;16.114;2023-04-07T08:53:27;100284.31;;;10.77;50.18
48624;BME280;34422;45.802;16.114;2023-04-07T08:55:55;100293.19;;;11.35;48.94
48624;BME280;34422;45.802;16.114;2023-04-07T08:58:22;100288.94;;;11.15;50.55
48624;BME280;34422;45.802;16.114;2023-04-07T09:00:49;100285.31;;;11.27;51.08
48624;BME280;34422;45.802;16.114;2023-04-07T09:03:17;100285.66;;;11.44;49.75
48624;BME280;34422;45.802;16.114;2023-04-07T09:05:44;100297.25;;;11.51;48.68
48624;BME280;34422;45.802;16.114;2023-04-07T09:08:11;100286.69;;;11.74;47.99
48624;BME280;34422;45.802;16.114;2023-04-07T09:10:38;100291.72;;;11.71;48.21
48624;BME280;34422;45.802;16.114;2023-04-07T09:13:05;100285.94;;;11.92;48.89
48624;BME280;34422;45.802;16.114;2023-04-07T09:15:32;100286.41;;;12.14;50.60
48624;BME280;34422;45.802;16.114;2023-04-07T09:17:59;100276.72;;;12.00;46.01
48624;BME280;34422;45.802;16.114;2023-04-07T09:20:25;100274.56;;;11.84;43.74
48624;BME280;34422;45.802;16.114;2023-04-07T09:22:55;100284.06;;;11.93;45.31
48624;BME280;34422;45.802;16.114;2023-04-07T09:25:23;100277.53;;;12.25;45.96
48624;BME280;34422;45.802;16.114;2023-04-07T09:28:03;100279.91;;;12.58;47.07
48624;BME280;34422;45.802;16.114;2023-04-07T09:30:33;100276.53;;;12.81;45.41
48624;BME280;34422;45.802;16.114;2023-04-07T09:33:00;100268.50;;;12.86;45.61
48624;BME280;34422;45.802;16.114;2023-04-07T09:35:27;100268.19;;;13.12;44.08
48624;BME280;34422;45.802;16.114;2023-04-07T09:38:08;100270.66;;;13.62;43.50
48624;BME280;34422;45.802;16.114;2023-04-07T09:40:35;100266.59;;;12.57;41.64
48624;BME280;34422;45.802;16.114;2023-04-07T09:43:03;100266.19;;;12.90;42.57
48624;BME280;34422;45.802;16.114;2023-04-07T09:45:31;100259.25;;;12.94;41.34
48624;BME280;34422;45.802;16.114;2023-04-07T09:47:58;100266.09;;;13.98;39.17
48624;BME280;34422;45.802;16.114;2023-04-07T09:50:39;100263.22;;;13.81;38.98
48624;BME280;34422;45.802;16.114;2023-04-07T09:53:06;100253.47;;;14.03;41.23
48624;BME280;34422;45.802;16.114;2023-04-07T09:55:34;100251.66;;;13.85;41.41
48624;BME280;34422;45.802;16.114;2023-04-07T09:58:03;100250.16;;;14.01;42.87
48624;BME280;34422;45.802;16.114;2023-04-07T10:00:30;100242.91;;;15.17;39.01
48624;BME280;34422;45.802;16.114;2023-04-07T10:02:57;100237.81;;;14.69;40.08
48624;BME280;34422;45.802;16.114;2023-04-07T10:05:24;100239.22;;;14.83;37.58
48624;BME280;34422;45.802;16.114;2023-04-07T10:07:52;100232.41;;;15.54;34.54
48624;BME280;34422;45.802;16.114;2023-04-07T10:10:20;100231.28;;;15.67;35.91
48624;BME280;34422;45.802;16.114;2023-04-07T10:12:48;100230.66;;;14.91;36.02
48624;BME280;34422;45.802;16.114;2023-04-07T10:15:15;100223.91;;;14.42;37.92
48624;BME280;34422;45.802;16.114;2023-04-07T10:17:46;100227.44;;;14.42;38.92
48624;BME280;34422;45.802;16.114;2023-04-07T10:20:16;100222.25;;;14.17;37.70
48624;BME280;34422;45.802;16.114;2023-04-07T10:22:45;100231.34;;;15.26;36.22
48624;BME280;34422;45.802;16.114;2023-04-07T10:25:17;100223.81;;;14.88;34.55
48624;BME280;34422;45.802;16.114;2023-04-07T10:27:51;100226.25;;;14.15;36.52
48624;BME280;34422;45.802;16.114;2023-04-07T10:30:29;100219.63;;;13.99;36.67
48624;BME280;34422;45.802;16.114;2023-04-07T10:32:56;100220.34;;;14.18;37.11
48624;BME280;34422;45.802;16.114;2023-04-07T10:35:24;100213.00;;;14.42;35.96
48624;BME280;34422;45.802;16.114;2023-04-07T10:38:20;100213.59;;;14.32;34.91
48624;BME280;34422;45.802;16.114;2023-04-07T10:40:48;100210.75;;;14.50;34.48
48624;BME280;34422;45.802;16.114;2023-04-07T10:43:35;100216.19;;;15.31;34.04
48624;BME280;34422;45.802;16.114;2023-04-07T10:46:02;100209.31;;;15.28;35.77
48624;BME280;34422;45.802;16.114;2023-04-07T10:48:29;100211.84;;;15.63;35.02
48624;BME280;34422;45.802;16.114;2023-04-07T10:53:31;100200.88;;;15.29;32.41
48624;BME280;34422;45.802;16.114;2023-04-07T10:55:59;100207.19;;;15.02;32.62
48624;BME280;34422;45.802;16.114;2023-04-07T10:58:32;100204.75;;;15.34;35.52
48624;BME280;34422;45.802;16.114;2023-04-07T11:03:27;100192.44;;;14.86;36.77
48624;BME280;34422;45.802;16.114;2023-04-07T11:06:07;100188.56;;;14.70;37.25
48624;BME280;34422;45.802;16.114;2023-04-07T11:08:40;100190.78;;;14.85;36.87
48624;BME280;34422;45.802;16.114;2023-04-07T11:11:09;100182.91;;;14.60;36.80
48624;BME280;34422;45.802;16.114;2023-04-07T11:16:07;100186.16;;;13.75;38.13
48624;BME280;34422;45.802;16.114;2023-04-07T11:18:35;100179.53;;;14.18;39.98
48624;BME280;34422;45.802;16.114;2023-04-07T11:21:03;100175.34;;;14.62;38.62
48624;BME280;34422;45.802;16.114;2023-04-07T11:23:44;100174.06;;;14.41;38.77
48624;BME280;34422;45.802;16.114;2023-04-07T11:26:13;100173.53;;;14.68;38.84
48624;BME280;34422;45.802;16.114;2023-04-07T11:28:51;100170.69;;;14.63;38.87
48624;BME280;34422;45.802;16.114;2023-04-07T11:31:22;100165.19;;;14.46;37.86
48624;BME280;34422;45.802;16.114;2023-04-07T11:33:54;100166.13;;;14.80;37.68
48624;BME280;34422;45.802;16.114;2023-04-07T11:36:38;100169.56;;;14.12;38.33
48624;BME280;34422;45.802;16.114;2023-04-07T11:39:05;100164.31;;;14.97;37.98
48624;BME280;34422;45.802;16.114;2023-04-07T11:41:47;100160.91;;;15.35;36.09
48624;BME280;34422;45.802;16.114;2023-04-07T11:44:14;100153.16;;;15.77;36.43
48624;BME280;34422;45.802;16.114;2023-04-07T11:46:58;100153.94;;;15.56;36.00
48624;BME280;34422;45.802;16.114;2023-04-07T11:49:26;100154.63;;;14.89;38.62
48624;BME280;34422;45.802;16.114;2023-04-07T11:52:04;100153.81;;;14.89;37.96
48624;BME280;34422;45.802;16.114;2023-04-07T11:54:45;100142.00;;;14.32;36.94
48624;BME280;34422;45.802;16.114;2023-04-07T11:57:26;100149.13;;;14.21;37.70
48624;BME280;34422;45.802;16.114;2023-04-07T12:00:06;100141.00;;;14.49;38.70
48624;BME280;34422;45.802;16.114;2023-04-07T12:02:33;100144.13;;;15.26;37.97
48624;BME280;34422;45.802;16.114;2023-04-07T12:05:00;100147.19;;;14.85;36.67
48624;BME280;34422;45.802;16.114;2023-04-07T12:07:27;100141.81;;;15.52;36.04
48624;BME280;34422;45.802;16.114;2023-04-07T12:09:54;100137.16;;;15.02;36.86
48624;BME280;34422;45.802;16.114;2023-04-07T12:12:25;100144.16;;;15.60;35.25
48624;BME280;34422;45.802;16.114;2023-04-07T12:14:53;100141.03;;;15.68;34.61
48624;BME280;34422;45.802;16.114;2023-04-07T12:17:21;100143.38;;;14.86;35.09
48624;BME280;34422;45.802;16.114;2023-04-07T12:19:48;100131.22;;;15.22;35.32
48624;BME280;34422;45.802;16.114;2023-04-07T12:22:15;100131.81;;;15.24;34.94
48624;BME280;34422;45.802;16.114;2023-04-07T12:24:42;100130.03;;;15.63;35.10
48624;BME280;34422;45.802;16.114;2023-04-07T12:27:08;100123.88;;;15.89;34.64
48624;BME280;34422;45.802;16.114;2023-04-07T12:29:35;100133.34;;;16.04;34.75
48624;BME280;34422;45.802;16.114;2023-04-07T12:32:05;100121.56;;;16.20;34.00
48624;BME280;34422;45.802;16.114;2023-04-07T12:34:32;100126.81;;;16.05;31.79
48624;BME280;34422;45.802;16.114;2023-04-07T12:37:00;100123.72;;;15.79;32.46
48624;BME280;34422;45.802;16.114;2023-04-07T12:39:26;100124.16;;;15.71;32.77
48624;BME280;34422;45.802;16.114;2023-04-07T12:41:53;100126.44;;;15.46;32.98
48624;BME280;34422;45.802;16.114;2023-04-07T12:44:21;100113.72;;;15.85;32.43
48624;BME280;34422;45.802;16.114;2023-04-07T12:46:47;100111.25;;;15.50;33.47
48624;BME280;34422;45.802;16.114;2023-04-07T12:49:14;100110.41;;;15.33;35.08
48624;BME280;34422;45.802;16.114;2023-04-07T12:51:42;100114.00;;;15.05;34.91
48624;BME280;34422;45.802;16.114;2023-04-07T12:54:09;100102.59;;;14.91;35.22
48624;BME280;34422;45.802;16.114;2023-04-07T12:56:36;100112.22;;;15.10;33.85
48624;BME280;34422;45.802;16.114;2023-04-07T12:59:02;100107.75;;;15.04;35.03